createdAt,value
2022-08-25T00:02:18.924Z,21.44
2022-08-25T00:04:53.735Z,21.43
2022-08-25T00:07:27.535Z,21.43
2022-08-25T00:10:01.134Z,21.41
2022-08-25T00:12:34.890Z,21.40
2022-08-25T00:15:11.283Z,21.40
2022-08-25T00:17:46.385Z,21.41
2022-08-25T00:20:20.557Z,21.43
2022-08-25T00:22:54.517Z,21.43
2022-08-25T00:25:28.490Z,21.44
2022-08-25T00:28:08.215Z,21.44
2022-08-25T00:30:43.681Z,21.44
2022-08-25T00:33:20.354Z,21.45
2022-08-25T00:35:54.834Z,21.45
2022-08-25T00:38:28.833Z,21.44
2022-08-25T00:41:11.555Z,21.46
2022-08-25T00:43:51.948Z,21.46
2022-08-25T00:46:32.813Z,21.47
2022-08-25T00:49:11.873Z,21.46
2022-08-25T00:52:05.250Z,21.46
2022-08-25T00:54:42.726Z,21.45
2022-08-25T00:57:19.881Z,21.47
2022-08-25T01:00:15.634Z,21.45
2022-08-25T01:02:50.819Z,21.44
2022-08-25T01:05:24.929Z,21.43
2022-08-25T01:08:06.895Z,21.41
2022-08-25T01:10:44.289Z,21.40
2022-08-25T01:13:21.650Z,21.38
2022-08-25T01:15:57.500Z,21.38
2022-08-25T01:18:44.909Z,21.42
2022-08-25T01:21:22.303Z,21.37
2022-08-25T01:23:58.364Z,21.38
2022-08-25T01:26:35.523Z,21.38
2022-08-25T01:29:25.554Z,21.38
2022-08-25T01:32:01.228Z,21.40
2022-08-25T01:34:36.967Z,21.42
2022-08-25T01:37:14.498Z,21.42
2022-08-25T01:39:48.161Z,21.43
2022-08-25T01:42:34.916Z,21.44
2022-08-25T01:45:10.488Z,21.44
2022-08-25T01:47:44.138Z,21.42
2022-08-25T01:50:18.940Z,21.43
2022-08-25T01:52:57.684Z,21.43
2022-08-25T01:55:51.747Z,21.41
2022-08-25T01:58:28.099Z,21.41
2022-08-25T02:01:06.797Z,21.40
2022-08-25T02:03:43.070Z,21.44
2022-08-25T02:06:28.745Z,21.43
2022-08-25T02:09:08.517Z,21.42
2022-08-25T02:11:44.817Z,21.41
2022-08-25T02:14:22.504Z,21.41
2022-08-25T02:16:56.684Z,21.40
2022-08-25T02:19:34.145Z,21.42
2022-08-25T02:22:08.186Z,21.43
2022-08-25T02:24:43.156Z,21.44
2022-08-25T02:27:16.871Z,21.44
2022-08-25T02:29:50.420Z,21.43
2022-08-25T02:32:24.382Z,21.44
2022-08-25T02:35:00.030Z,21.43
2022-08-25T02:37:34.200Z,21.42
2022-08-25T02:40:11.092Z,21.44
2022-08-25T02:42:44.865Z,21.45
2022-08-25T02:45:19.030Z,21.47
2022-08-25T02:47:52.969Z,21.46
2022-08-25T02:50:26.557Z,21.47
2022-08-25T02:53:00.224Z,21.48
2022-08-25T02:55:35.167Z,21.49
2022-08-25T02:58:09.305Z,21.50
2022-08-25T03:00:43.165Z,21.51
2022-08-25T03:03:17.702Z,21.51
2022-08-25T03:05:54.061Z,21.51
2022-08-25T03:08:28.219Z,21.52
2022-08-25T03:11:03.339Z,21.53
2022-08-25T03:13:37.272Z,21.54
2022-08-25T03:16:12.444Z,21.55
2022-08-25T03:18:46.627Z,21.56
2022-08-25T03:21:21.495Z,21.57
2022-08-25T03:23:55.184Z,21.58
2022-08-25T03:26:47.782Z,21.57
2022-08-25T03:29:21.731Z,21.58
2022-08-25T03:31:58.384Z,21.56
2022-08-25T03:34:32.520Z,21.58
2022-08-25T03:37:08.604Z,21.57
2022-08-25T03:39:42.695Z,21.58
2022-08-25T03:42:17.977Z,21.59
2022-08-25T03:44:51.554Z,21.59
2022-08-25T03:47:29.502Z,21.56
2022-08-25T03:50:03.193Z,21.54
2022-08-25T03:52:41.911Z,21.54
2022-08-25T03:55:16.313Z,21.55
2022-08-25T03:57:51.378Z,21.54
2022-08-25T04:00:25.393Z,21.53
2022-08-25T04:02:58.966Z,21.53
2022-08-25T04:05:32.949Z,21.54
2022-08-25T04:08:08.159Z,21.52
2022-08-25T04:10:41.833Z,21.52
2022-08-25T04:13:16.898Z,21.52
2022-08-25T04:15:50.842Z,21.52
2022-08-25T04:18:24.380Z,21.50
2022-08-25T04:21:04.436Z,21.50
2022-08-25T04:23:38.586Z,21.50
2022-08-25T04:26:14.180Z,21.50
2022-08-25T04:28:51.208Z,21.52
2022-08-25T04:31:25.124Z,21.51
2022-08-25T04:33:59.387Z,21.52
2022-08-25T04:36:33.340Z,21.52
2022-08-25T04:39:07.184Z,21.52
2022-08-25T04:41:41.372Z,21.54
2022-08-25T04:44:16.807Z,21.55
2022-08-25T04:46:50.648Z,21.59
2022-08-25T04:49:24.474Z,21.63
2022-08-25T04:51:58.093Z,21.66
2022-08-25T04:54:37.085Z,21.70
2022-08-25T04:57:11.108Z,21.75
2022-08-25T04:59:46.193Z,21.76
2022-08-25T05:02:20.052Z,21.81
2022-08-25T05:04:53.753Z,21.86
2022-08-25T05:07:27.420Z,21.90
2022-08-25T05:10:00.978Z,21.94
2022-08-25T05:12:36.399Z,21.97
2022-08-25T05:15:29.943Z,21.99
2022-08-25T05:18:03.629Z,22.03
2022-08-25T05:20:38.580Z,22.06
2022-08-25T05:23:12.594Z,22.10
2022-08-25T05:25:46.349Z,22.20
2022-08-25T05:28:20.335Z,22.27
2022-08-25T05:31:00.146Z,22.36
2022-08-25T05:33:33.695Z,22.42
2022-08-25T05:36:09.418Z,22.51
2022-08-25T05:38:43.358Z,22.61
2022-08-25T05:41:19.597Z,22.77
2022-08-25T05:43:53.305Z,22.94
2022-08-25T05:46:28.419Z,23.11
2022-08-25T05:49:05.516Z,23.33
2022-08-25T05:51:39.123Z,23.54
2022-08-25T05:54:12.765Z,23.69
2022-08-25T05:56:46.769Z,23.81
2022-08-25T05:59:20.498Z,23.93
2022-08-25T06:02:12.480Z,24.05
2022-08-25T06:04:46.217Z,24.16
2022-08-25T06:07:19.833Z,24.20
2022-08-25T06:09:53.852Z,24.24
2022-08-25T06:12:27.522Z,24.26
2022-08-25T06:15:01.100Z,24.26
2022-08-25T06:17:40.913Z,24.28
2022-08-25T06:20:17.060Z,24.32
2022-08-25T06:22:51.274Z,24.35
2022-08-25T06:25:26.724Z,24.37
2022-08-25T06:28:00.815Z,24.41
2022-08-25T06:30:34.687Z,24.50
2022-08-25T06:33:10.462Z,24.59
2022-08-25T06:35:45.811Z,24.68
2022-08-25T06:38:19.636Z,24.78
2022-08-25T06:40:53.488Z,24.89
2022-08-25T06:43:27.079Z,25.01
2022-08-25T06:46:01.019Z,25.18
2022-08-25T06:48:38.635Z,25.32
2022-08-25T06:51:14.503Z,25.47
2022-08-25T06:53:50.326Z,25.53
2022-08-25T06:56:24.211Z,25.60
2022-08-25T06:58:57.876Z,25.66
2022-08-25T07:01:32.391Z,25.73
2022-08-25T07:04:12.834Z,25.79
2022-08-25T07:06:47.109Z,25.84
2022-08-25T07:09:20.805Z,25.94
2022-08-25T07:11:54.550Z,26.08
2022-08-25T07:14:28.291Z,26.22
2022-08-25T07:17:02.296Z,26.33
2022-08-25T07:19:47.563Z,26.44
2022-08-25T07:22:25.713Z,26.51
2022-08-25T07:24:59.522Z,26.66
2022-08-25T07:27:33.687Z,26.78
2022-08-25T07:33:06.679Z,27.08
2022-08-25T07:35:46.964Z,27.25
2022-08-25T07:38:28.169Z,27.34
2022-08-25T07:41:05.884Z,27.31
2022-08-25T07:43:39.670Z,27.28
2022-08-25T07:46:13.635Z,27.39
2022-08-25T07:48:53.117Z,27.75
2022-08-25T07:51:28.613Z,28.02
2022-08-25T07:54:02.260Z,28.27
2022-08-25T07:56:37.323Z,28.69
2022-08-25T07:59:12.664Z,29.06
2022-08-25T08:01:47.281Z,29.46
2022-08-25T08:04:21.283Z,29.84
2022-08-25T08:06:56.386Z,30.23
2022-08-25T08:09:31.287Z,30.65
2022-08-25T08:12:05.765Z,31.02
2022-08-25T08:14:39.645Z,31.40
2022-08-25T08:17:19.230Z,31.79
2022-08-25T08:19:53.633Z,32.18
2022-08-25T08:22:29.572Z,32.51
2022-08-25T08:25:03.934Z,32.81
2022-08-25T08:27:43.107Z,33.01
2022-08-25T08:30:17.344Z,33.16
2022-08-25T08:33:10.049Z,33.25
2022-08-25T08:35:44.970Z,33.46
2022-08-25T08:38:22.098Z,33.87
2022-08-25T08:41:29.667Z,34.25
2022-08-25T08:44:10.063Z,34.52
2022-08-25T08:46:54.311Z,34.76
2022-08-25T08:49:39.102Z,34.95
2022-08-25T08:52:15.274Z,35.33
2022-08-25T08:55:00.652Z,35.36
2022-08-25T08:57:38.012Z,35.41
2022-08-25T09:00:12.413Z,35.45
2022-08-25T09:02:52.649Z,35.67
2022-08-25T09:05:30.055Z,35.76
2022-08-25T09:08:07.929Z,35.95
2022-08-25T09:11:02.281Z,36.20
2022-08-25T09:13:47.233Z,36.69
2022-08-25T09:16:46.025Z,37.14
2022-08-25T09:19:33.365Z,37.62
2022-08-25T09:22:33.927Z,37.68
2022-08-25T09:25:21.960Z,37.64
2022-08-25T09:28:09.728Z,38.00
2022-08-25T09:30:47.036Z,38.52
2022-08-25T09:33:25.140Z,38.87
2022-08-25T09:35:59.332Z,39.40
2022-08-25T09:38:38.807Z,39.90
2022-08-25T09:41:12.603Z,40.70
2022-08-25T09:43:55.792Z,41.77
2022-08-25T09:46:31.702Z,42.84
2022-08-25T09:49:14.085Z,43.90
2022-08-25T09:51:48.515Z,44.87
2022-08-25T09:54:34.063Z,45.79
2022-08-25T09:57:34.256Z,46.66
2022-08-25T10:00:16.232Z,47.25
2022-08-25T10:03:07.092Z,47.96
2022-08-25T10:06:01.074Z,48.64
2022-08-25T10:08:39.745Z,49.27
2022-08-25T10:11:16.571Z,49.72
2022-08-25T10:14:03.436Z,50.26
2022-08-25T10:16:38.588Z,50.70
2022-08-25T10:19:34.108Z,51.05
2022-08-25T10:22:11.080Z,51.22
2022-08-25T10:24:47.680Z,51.31
2022-08-25T10:27:29.164Z,51.41
2022-08-25T10:30:12.715Z,51.49
2022-08-25T10:33:11.947Z,51.67
2022-08-25T10:35:58.579Z,51.84
2022-08-25T10:38:39.943Z,52.05
2022-08-25T10:41:48.003Z,52.37
2022-08-25T10:44:50.197Z,52.58
2022-08-25T10:47:36.234Z,52.81
2022-08-25T10:50:19.637Z,52.87
2022-08-25T10:53:09.588Z,52.93
2022-08-25T10:55:52.890Z,52.96
2022-08-25T10:58:47.267Z,53.00
2022-08-25T11:01:42.904Z,53.07
2022-08-25T11:04:26.254Z,53.08
2022-08-25T11:07:07.096Z,52.99
2022-08-25T11:09:44.549Z,52.84
2022-08-25T11:12:27.914Z,52.78
2022-08-25T11:15:05.511Z,52.67
2022-08-25T11:17:44.310Z,52.48
2022-08-25T11:20:26.856Z,52.27
2022-08-25T11:23:17.526Z,52.07
2022-08-25T11:25:54.368Z,51.68
2022-08-25T11:28:38.606Z,51.57
2022-08-25T11:31:13.151Z,51.45
2022-08-25T11:33:47.141Z,51.26
2022-08-25T11:36:32.321Z,50.95
2022-08-25T11:39:17.082Z,50.45
2022-08-25T11:42:04.600Z,49.70
2022-08-25T11:44:53.755Z,48.76
2022-08-25T11:47:44.194Z,47.81
2022-08-25T11:50:31.429Z,46.94
2022-08-25T11:53:26.658Z,46.11
2022-08-25T11:56:05.870Z,45.32
2022-08-25T11:58:43.850Z,44.67
2022-08-25T12:02:11.392Z,43.90
2022-08-25T12:04:45.758Z,43.29
2022-08-25T12:07:26.190Z,42.85
2022-08-25T12:10:24.452Z,42.33
2022-08-25T12:13:24.532Z,41.85
2022-08-25T12:16:01.225Z,41.36
2022-08-25T12:18:50.463Z,40.96
2022-08-25T12:21:37.188Z,40.64
2022-08-25T12:24:15.905Z,40.29
2022-08-25T12:26:59.790Z,39.96
2022-08-25T12:29:44.681Z,39.69
2022-08-25T12:32:44.462Z,39.44
2022-08-25T12:35:33.719Z,39.14
2022-08-25T12:38:10.837Z,38.88
2022-08-25T12:41:00.591Z,38.64
2022-08-25T12:43:37.577Z,38.38
2022-08-25T12:46:41.107Z,38.22
2022-08-25T12:49:32.695Z,38.01
2022-08-25T12:52:09.469Z,37.81
2022-08-25T12:54:50.454Z,37.60
2022-08-25T12:57:40.447Z,37.37
2022-08-25T13:00:22.582Z,37.13
2022-08-25T13:06:23.766Z,36.58
2022-08-25T13:09:27.477Z,36.29
2022-08-25T13:12:10.956Z,36.03
2022-08-25T13:14:47.113Z,35.71
2022-08-25T13:17:29.163Z,35.44
2022-08-25T13:20:21.747Z,35.23
2022-08-25T13:23:04.054Z,35.01
2022-08-25T13:25:50.611Z,34.79
2022-08-25T13:28:31.565Z,34.58
2022-08-25T13:31:09.165Z,34.39
2022-08-25T13:33:54.967Z,34.26
2022-08-25T13:36:54.086Z,34.14
2022-08-25T13:39:55.046Z,34.05
2022-08-25T13:42:31.999Z,33.93
2022-08-25T13:45:10.553Z,33.83
2022-08-25T13:47:46.615Z,33.78
2022-08-25T13:50:23.809Z,33.69
2022-08-25T13:53:02.991Z,33.61
2022-08-25T13:55:51.551Z,33.55
2022-08-25T13:58:45.012Z,33.52
2022-08-25T14:01:47.803Z,33.48
2022-08-25T14:04:31.406Z,33.47
2022-08-25T14:07:13.958Z,33.40
2022-08-25T14:09:50.388Z,33.34
2022-08-25T14:12:41.260Z,33.30
2022-08-25T14:15:32.540Z,33.25
2022-08-25T14:18:14.067Z,33.16
2022-08-25T14:20:50.824Z,33.06
2022-08-25T14:23:27.629Z,33.01
2022-08-25T14:26:01.300Z,32.95
2022-08-25T14:28:36.470Z,32.90
2022-08-25T14:31:13.936Z,32.85
2022-08-25T14:33:58.588Z,32.81
2022-08-25T14:36:35.116Z,32.75
2022-08-25T14:39:09.996Z,32.71
2022-08-25T14:41:48.679Z,32.68
2022-08-25T14:44:28.102Z,32.65
2022-08-25T14:47:03.018Z,32.58
2022-08-25T14:49:44.185Z,32.54
2022-08-25T14:52:22.467Z,32.49
2022-08-25T14:54:57.422Z,32.45
2022-08-25T14:57:31.135Z,32.40
2022-08-25T15:00:08.962Z,32.36
2022-08-25T15:02:44.995Z,32.32
2022-08-25T15:05:25.884Z,32.27
2022-08-25T15:08:17.075Z,32.27
2022-08-25T15:10:51.285Z,32.24
2022-08-25T15:13:28.329Z,32.22
2022-08-25T15:16:03.815Z,32.17
2022-08-25T15:18:37.995Z,32.15
2022-08-25T15:21:11.813Z,32.10
2022-08-25T15:23:49.585Z,32.08
2022-08-25T15:26:26.008Z,32.04
2022-08-25T15:28:59.709Z,32.00
2022-08-25T15:31:35.002Z,31.97
2022-08-25T15:34:11.772Z,31.92
2022-08-25T15:36:45.803Z,31.89
2022-08-25T15:39:21.843Z,31.86
2022-08-25T15:41:57.300Z,31.86
2022-08-25T15:44:31.483Z,31.84
2022-08-25T15:47:07.028Z,31.83
2022-08-25T15:49:46.384Z,31.80
2022-08-25T15:52:20.938Z,31.77
2022-08-25T15:54:56.250Z,31.73
2022-08-25T15:57:30.102Z,31.70
2022-08-25T16:00:03.982Z,31.66
2022-08-25T16:02:40.059Z,31.62
2022-08-25T16:05:16.132Z,31.58
2022-08-25T16:07:51.494Z,31.55
2022-08-25T16:10:25.576Z,31.50
2022-08-25T16:12:59.865Z,31.45
2022-08-25T16:15:33.578Z,31.41
2022-08-25T16:18:08.916Z,31.35
2022-08-25T16:20:47.663Z,31.32
2022-08-25T16:23:22.343Z,31.26
2022-08-25T16:25:55.947Z,31.23
2022-08-25T16:28:29.633Z,31.19
2022-08-25T16:31:03.630Z,31.13
2022-08-25T16:33:39.103Z,31.08
2022-08-25T16:36:16.911Z,31.03
2022-08-25T16:38:52.579Z,30.96
2022-08-25T16:41:34.192Z,30.88
2022-08-25T16:44:11.252Z,30.79
2022-08-25T16:46:45.418Z,30.72
2022-08-25T16:49:24.418Z,30.62
2022-08-25T16:51:58.535Z,30.53
2022-08-25T16:54:49.438Z,30.44
2022-08-25T16:57:24.691Z,30.32
2022-08-25T17:00:00.615Z,30.22
2022-08-25T17:02:34.479Z,30.14
2022-08-25T17:05:11.693Z,30.03
2022-08-25T17:08:05.497Z,29.96
2022-08-25T17:10:40.378Z,29.86
2022-08-25T17:13:15.930Z,29.78
2022-08-25T17:15:52.360Z,29.69
2022-08-25T17:18:26.467Z,29.59
2022-08-25T17:21:03.911Z,29.50
2022-08-25T17:23:38.782Z,29.41
2022-08-25T17:26:16.259Z,29.30
2022-08-25T17:28:51.197Z,29.22
2022-08-25T17:31:28.381Z,29.11
2022-08-25T17:34:03.678Z,29.02
2022-08-25T17:36:39.851Z,28.92
2022-08-25T17:39:18.449Z,28.85
2022-08-25T17:41:52.937Z,28.75
2022-08-25T17:44:26.576Z,28.67
2022-08-25T17:47:00.662Z,28.57
2022-08-25T17:49:34.451Z,28.48
2022-08-25T17:52:09.500Z,28.37
2022-08-25T17:54:43.203Z,28.27
2022-08-25T17:57:17.290Z,28.20
2022-08-25T17:59:50.996Z,28.09
2022-08-25T18:02:24.661Z,28.02
2022-08-25T18:05:03.939Z,27.95
2022-08-25T18:07:40.010Z,27.86
2022-08-25T18:10:16.715Z,27.79
2022-08-25T18:12:50.679Z,27.72
2022-08-25T18:15:24.299Z,27.65
2022-08-25T18:17:58.397Z,27.58
2022-08-25T18:20:32.018Z,27.50
2022-08-25T18:23:09.719Z,27.42
2022-08-25T18:25:43.988Z,27.34
2022-08-25T18:28:19.037Z,27.27
2022-08-25T18:30:52.784Z,27.21
2022-08-25T18:33:26.528Z,27.15
2022-08-25T18:36:03.807Z,27.10
2022-08-25T18:38:58.143Z,27.06
2022-08-25T18:41:37.273Z,26.99
2022-08-25T18:44:12.047Z,26.95
2022-08-25T18:46:46.002Z,26.90
2022-08-25T18:49:20.372Z,26.87
2022-08-25T18:51:53.971Z,26.83
2022-08-25T18:54:29.411Z,26.81
2022-08-25T18:57:03.990Z,26.78
2022-08-25T18:59:37.884Z,26.75
2022-08-25T19:02:12.818Z,26.72
2022-08-25T19:04:46.554Z,26.66
2022-08-25T19:07:20.410Z,26.62
2022-08-25T19:09:55.613Z,26.57
2022-08-25T19:12:29.338Z,26.55
2022-08-25T19:15:02.953Z,26.53
2022-08-25T19:17:38.764Z,26.50
2022-08-25T19:20:12.524Z,26.46
2022-08-25T19:22:46.268Z,26.41
2022-08-25T19:25:23.342Z,26.37
2022-08-25T19:27:58.671Z,26.33
2022-08-25T19:30:34.407Z,26.29
2022-08-25T19:33:11.607Z,26.24
2022-08-25T19:35:50.624Z,26.18
2022-08-25T19:38:33.608Z,26.12
2022-08-25T19:41:10.619Z,26.06
2022-08-25T19:43:56.632Z,26.02
2022-08-25T19:46:35.437Z,25.98
2022-08-25T19:49:12.133Z,25.95
2022-08-25T19:51:50.585Z,25.91
2022-08-25T19:54:29.489Z,25.86
2022-08-25T19:57:07.865Z,25.83
2022-08-25T19:59:47.513Z,25.79
2022-08-25T20:02:26.347Z,25.74
2022-08-25T20:05:03.387Z,25.70
2022-08-25T20:07:37.257Z,25.67
2022-08-25T20:10:15.054Z,25.63
2022-08-25T20:12:50.715Z,25.58
2022-08-25T20:15:24.613Z,25.53
2022-08-25T20:17:58.312Z,25.48
2022-08-25T20:20:32.699Z,25.44
2022-08-25T20:23:25.611Z,25.42
2022-08-25T20:26:01.517Z,25.37
2022-08-25T20:28:36.587Z,25.32
2022-08-25T20:31:10.215Z,25.28
2022-08-25T20:33:43.825Z,25.26
2022-08-25T20:36:19.894Z,25.21
2022-08-25T20:38:53.438Z,25.16
2022-08-25T20:41:27.103Z,25.11
2022-08-25T20:44:02.190Z,25.09
2022-08-25T20:46:36.191Z,25.06
2022-08-25T20:49:12.760Z,25.04
2022-08-25T20:51:46.359Z,24.99
2022-08-25T20:54:20.039Z,24.95
2022-08-25T20:56:54.525Z,24.90
2022-08-25T20:59:29.786Z,24.85
2022-08-25T21:02:03.856Z,24.81
2022-08-25T21:04:37.492Z,24.77
2022-08-25T21:07:13.062Z,24.73
2022-08-25T21:09:46.694Z,24.70
2022-08-25T21:12:21.044Z,24.65
2022-08-25T21:14:56.049Z,24.63
2022-08-25T21:17:30.752Z,24.61
2022-08-25T21:20:05.976Z,24.57
2022-08-25T21:22:40.908Z,24.54
2022-08-25T21:25:15.075Z,24.51
2022-08-25T21:27:49.695Z,24.48
2022-08-25T21:30:27.593Z,24.42
2022-08-25T21:33:02.229Z,24.38
2022-08-25T21:35:39.921Z,24.34
2022-08-25T21:38:13.545Z,24.32
2022-08-25T21:40:47.171Z,24.28
2022-08-25T21:43:22.147Z,24.27
2022-08-25T21:45:57.160Z,24.28
2022-08-25T21:48:30.770Z,24.27
2022-08-25T21:51:06.347Z,24.26
2022-08-25T21:53:40.304Z,24.24
2022-08-25T21:56:17.477Z,24.22
2022-08-25T21:58:53.049Z,24.20
2022-08-25T22:01:30.384Z,24.16
2022-08-25T22:04:04.571Z,24.14
2022-08-25T22:06:38.570Z,24.11
2022-08-25T22:09:14.027Z,24.10
2022-08-25T22:11:47.936Z,24.08
2022-08-25T22:14:22.113Z,24.06
2022-08-25T22:16:57.554Z,24.04
2022-08-25T22:19:31.296Z,24.01
2022-08-25T22:22:07.109Z,23.99
2022-08-25T22:24:40.849Z,23.96
2022-08-25T22:27:17.122Z,23.92
2022-08-25T22:29:51.045Z,23.88
2022-08-25T22:32:26.099Z,23.85
2022-08-25T22:34:59.662Z,23.81
2022-08-25T22:37:34.995Z,23.76
2022-08-25T22:40:10.143Z,23.71
2022-08-25T22:42:47.939Z,23.65
2022-08-25T22:45:22.563Z,23.62
2022-08-25T22:48:00.049Z,23.55
2022-08-25T22:50:36.331Z,23.49
2022-08-25T22:53:09.983Z,23.43
2022-08-25T22:55:47.284Z,23.36
2022-08-25T22:58:25.931Z,23.30
2022-08-25T23:01:00.338Z,23.24
2022-08-25T23:03:44.259Z,23.16
2022-08-25T23:06:26.365Z,23.08
2022-08-25T23:09:00.148Z,23.01
2022-08-25T23:11:38.551Z,22.91
2022-08-25T23:14:12.775Z,22.81
2022-08-25T23:16:46.519Z,22.73
2022-08-25T23:19:21.445Z,22.66
2022-08-25T23:22:13.771Z,22.61
2022-08-25T23:24:53.366Z,22.57
2022-08-25T23:27:26.971Z,22.52
2022-08-25T23:30:01.519Z,22.49
2022-08-25T23:32:35.159Z,22.49
2022-08-25T23:35:10.976Z,22.46
2022-08-25T23:37:44.702Z,22.43
2022-08-25T23:40:19.241Z,22.37
2022-08-25T23:42:53.128Z,22.32
2022-08-25T23:45:26.790Z,22.26
2022-08-25T23:48:00.385Z,22.21
2022-08-25T23:50:40.708Z,22.14
2022-08-25T23:53:15.576Z,22.04
2022-08-25T23:55:52.895Z,21.98
2022-08-25T23:58:27.135Z,21.92
